Time;durP1;ratioP1;P1;durP2;ratioP2;P2;SDS_P1;SDS_P2;PMS_P1;PMS_P2;Temp;Humidity;BMP_temperature;BMP_pressure;BME280_temperature;BME280_humidity;BME280_pressure;Samples;Min_cycle;Max_cycle;Signal;HPM_P1;HPM_P2
2021/06/23 00:02:33;;;;;;;26.20;20.00;;;;;;;20.34;75.51;99621.46;255406;1104;115554;-73
2021/06/23 00:07:37;;;;;;;24.88;21.50;;;;;;;20.41;75.23;99632.72;254492;1104;116028;-73
2021/06/23 00:12:41;;;;;;;24.03;21.30;;;;;;;20.47;75.56;99623.40;255389;1100;115859;-75
2021/06/23 00:17:45;;;;;;;22.88;20.08;;;;;;;20.49;75.66;99637.41;254464;1104;115775;-75
2021/06/23 00:22:49;;;;;;;26.40;20.77;;;;;;;20.55;75.60;99636.20;254244;1104;117752;-74
2021/06/23 00:27:52;;;;;;;22.53;18.73;;;;;;;20.58;75.44;99626.67;254466;1104;115802;-78
2021/06/23 00:33:03;;;;;;;25.58;20.55;;;;;;;20.60;75.68;99629.88;254804;1104;115555;-75
2021/06/23 00:38:06;;;;;;;25.18;22.55;;;;;;;20.58;75.64;99638.31;254657;1100;115374;-74
2021/06/23 00:43:10;;;;;;;23.63;20.35;;;;;;;20.58;75.39;99649.14;254314;1104;115651;-73
2021/06/23 00:48:22;;;;;;;24.45;20.43;;;;;;;20.58;75.73;99648.34;255447;1103;115560;-73
2021/06/23 00:53:27;;;;;;;34.63;19.18;;;;;;;20.61;75.71;99658.57;254360;1104;116093;-73
2021/06/23 00:58:31;;;;;;;23.35;17.28;;;;;;;20.61;75.40;99659.38;254409;1100;115027;-74
2021/06/23 01:03:36;;;;;;;23.65;19.13;;;;;;;20.60;75.81;99656.97;255253;1104;115192;-74
2021/06/23 01:08:39;;;;;;;22.28;19.95;;;;;;;20.62;75.92;99650.14;255344;1104;115340;-76
2021/06/23 01:14:05;;;;;;;25.17;18.90;;;;;;;20.61;75.56;99664.79;255694;1104;114989;-73
2021/06/23 01:19:11;;;;;;;23.08;19.48;;;;;;;20.55;75.88;99654.36;255670;1104;115567;-74
2021/06/23 01:24:14;;;;;;;27.15;23.53;;;;;;;20.54;75.75;99661.68;257152;1104;116217;-77
2021/06/23 01:29:18;;;;;;;26.90;21.77;;;;;;;20.56;76.00;99670.30;254405;1104;116129;-74
2021/06/23 01:34:21;;;;;;;26.23;21.40;;;;;;;20.55;75.53;99686.85;254236;1104;116377;-74
2021/06/23 01:39:23;;;;;;;28.75;24.88;;;;;;;20.48;75.58;99690.76;254370;1104;116439;-74
2021/06/23 01:44:29;;;;;;;27.68;24.80;;;;;;;20.51;75.73;99702.90;254365;1104;117526;-74
2021/06/23 01:49:33;;;;;;;29.73;24.40;;;;;;;20.54;75.78;99712.33;254248;1104;116724;-73
2021/06/23 01:54:41;;;;;;;33.55;27.18;;;;;;;20.43;75.74;99712.55;254460;1104;117442;-74
2021/06/23 01:59:46;;;;;;;29.88;26.43;;;;;;;20.36;75.59;99714.81;254502;1104;117301;-75
2021/06/23 02:05:00;;;;;;;;;;;;;;;20.33;75.77;99712.70;254427;1098;116447;-75
2021/06/23 02:10:22;;;;;;;42.73;29.33;;;;;;;20.28;76.02;99731.73;255106;1104;104599;-75
2021/06/23 02:15:28;;;;;;;38.35;30.18;;;;;;;20.30;76.21;99747.69;254584;1104;116914;-75
2021/06/23 02:20:33;;;;;;;;;;;;;;;20.27;76.16;99757.20;254490;1104;117032;-75
2021/06/23 02:25:39;;;;;;;35.75;26.90;;;;;;;20.28;76.78;99763.42;255356;1104;103013;-75
2021/06/23 02:30:44;;;;;;;36.20;28.98;;;;;;;20.23;76.11;99758.89;254157;1099;116724;-75
2021/06/23 02:35:51;;;;;;;37.83;30.63;;;;;;;20.25;76.07;99769.42;254288;1098;117088;-72
2021/06/23 02:40:55;;;;;;;40.40;29.15;;;;;;;20.25;76.29;99764.81;254411;1099;117510;-75
2021/06/23 02:45:59;;;;;;;42.05;29.70;;;;;;;20.30;76.33;99762.02;254412;1104;116558;-75
2021/06/23 02:51:18;;;;;;;39.10;30.18;;;;;;;20.33;76.42;99766.04;254305;1104;116347;-75
2021/06/23 02:56:24;;;;;;;36.55;27.23;;;;;;;20.33;76.29;99777.67;255342;1104;117654;-75
2021/06/23 03:01:27;;;;;;;39.03;28.78;;;;;;;20.30;76.13;99780.97;254334;1104;117222;-74
2021/06/23 03:06:31;;;;;;;36.85;28.80;;;;;;;20.31;76.30;99785.28;254429;1104;116492;-75
2021/06/23 03:11:36;;;;;;;42.20;28.08;;;;;;;20.32;76.25;99792.30;257024;1104;116090;-76
2021/06/23 03:16:39;;;;;;;34.78;26.95;;;;;;;20.34;76.28;99787.40;256341;1104;116399;-75
2021/06/23 03:21:46;;;;;;;37.13;27.78;;;;;;;20.30;76.14;99797.21;257447;1104;117421;-75
2021/06/23 03:26:53;;;;;;;38.15;27.55;;;;;;;20.39;76.57;99803.59;256262;1104;117438;-74
2021/06/23 03:31:56;;;;;;;35.73;28.23;;;;;;;20.40;76.53;99799.78;254908;1104;117424;-75
2021/06/23 03:37:00;;;;;;;33.00;24.60;;;;;;;20.46;76.34;99820.26;255914;1104;115870;-74
2021/06/23 03:42:05;;;;;;;38.43;26.15;;;;;;;20.46;76.28;99820.26;254446;1100;116281;-74
2021/06/23 03:47:08;;;;;;;38.90;25.48;;;;;;;20.47;76.61;99815.65;254426;1104;117491;-74
2021/06/23 03:52:12;;;;;;;36.83;24.95;;;;;;;20.47;76.80;99816.45;254545;1104;116316;-75
2021/06/23 03:57:15;;;;;;;41.10;27.15;;;;;;;20.48;76.56;99815.31;254373;1099;117013;-75
2021/06/23 04:02:18;;;;;;;35.10;26.58;;;;;;;20.53;76.67;99803.59;255532;1104;117204;-72
2021/06/23 04:07:22;;;;;;;35.43;28.25;;;;;;;20.61;76.56;99816.45;254835;1104;115825;-72
2021/06/23 04:12:25;;;;;;;36.50;26.48;;;;;;;20.67;76.05;99811.75;254377;1104;115909;-71
2021/06/23 04:17:28;;;;;;;34.75;27.15;;;;;;;20.67;76.44;99812.55;255225;1104;116070;-70
2021/06/23 04:22:31;;;;;;;31.95;24.05;;;;;;;20.76;76.30;99818.09;254412;1104;115375;-72
2021/06/23 04:27:35;;;;;;;39.05;26.65;;;;;;;20.86;76.20;99826.00;254253;1104;117318;-73
2021/06/23 04:32:39;;;;;;;30.08;23.98;;;;;;;20.95;76.31;99821.50;254343;1104;115913;-71
2021/06/23 04:37:44;;;;;;;33.25;23.53;;;;;;;21.10;76.47;99815.77;255202;1104;116809;-71
2021/06/23 04:42:47;;;;;;;32.48;23.10;;;;;;;21.16;76.39;99838.15;254596;1104;115003;-72
2021/06/23 04:47:52;;;;;;;38.42;26.48;;;;;;;21.15;75.95;99842.77;254181;1104;116219;-73
2021/06/23 04:52:55;;;;;;;29.03;23.43;;;;;;;21.30;75.77;99849.03;254454;1104;115849;-74
2021/06/23 04:57:57;;;;;;;28.33;25.27;;;;;;;21.34;75.80;99855.45;254618;1104;115571;-72
2021/06/23 05:03:02;;;;;;;29.33;24.33;;;;;;;21.32;75.62;99858.47;254297;1104;115913;-71
2021/06/23 05:08:07;;;;;;;29.50;24.68;;;;;;;21.32;75.65;99865.80;254265;1104;116233;-70
2021/06/23 05:13:09;;;;;;;34.23;25.63;;;;;;;21.35;75.91;99876.05;256066;1100;115388;-71
2021/06/23 05:18:13;;;;;;;30.10;23.63;;;;;;;21.35;75.76;99879.56;255675;1104;115573;-72
2021/06/23 05:23:16;;;;;;;29.28;23.20;;;;;;;21.37;75.28;99877.35;257296;1104;115617;-75
2021/06/23 05:28:19;;;;;;;29.20;22.23;;;;;;;21.38;75.51;99878.95;257280;1104;115457;-78
2021/06/23 05:33:23;;;;;;;31.83;24.15;;;;;;;21.42;75.33;99892.69;255199;1104;127249;-76
2021/06/23 05:38:27;;;;;;;32.95;23.13;;;;;;;21.45;75.34;99900.22;254686;1104;116086;-74
2021/06/23 05:43:33;;;;;;;33.00;24.55;;;;;;;21.46;75.34;99918.10;254627;1104;115962;-78
2021/06/23 05:48:36;;;;;;;31.73;25.38;;;;;;;21.49;75.37;99918.30;254992;1104;115677;-76
2021/06/23 05:53:39;;;;;;;32.95;24.83;;;;;;;21.56;75.24;99914.39;254298;1104;142881;-75
2021/06/23 05:58:42;;;;;;;41.35;24.30;;;;;;;21.62;75.21;99924.03;254334;1104;115347;-75
2021/06/23 06:03:45;;;;;;;32.27;23.93;;;;;;;21.61;74.99;99909.66;254258;1100;115923;-77
2021/06/23 06:08:53;;;;;;;35.15;23.28;;;;;;;21.68;75.00;99903.84;254281;1104;115781;-76
2021/06/23 06:13:57;;;;;;;31.77;25.73;;;;;;;21.81;75.31;99906.50;254342;1104;115241;-76
2021/06/23 06:19:01;;;;;;;35.50;25.08;;;;;;;21.89;74.92;99915.04;254190;1104;115165;-73
2021/06/23 06:24:05;;;;;;;29.97;24.20;;;;;;;21.99;74.59;99922.97;254461;1104;115569;-75
2021/06/23 06:29:10;;;;;;;31.35;27.00;;;;;;;22.03;74.55;99924.77;254255;1104;116432;-72
2021/06/23 06:34:13;;;;;;;33.43;24.88;;;;;;;22.14;74.86;99928.88;254734;1104;115742;-75
2021/06/23 06:39:21;;;;;;;30.78;21.65;;;;;;;22.29;74.47;99919.58;254285;1104;115761;-74
2021/06/23 06:44:29;;;;;;;29.17;23.30;;;;;;;22.40;74.37;99953.52;254275;1104;116110;-75
2021/06/23 06:49:32;;;;;;;28.70;24.80;;;;;;;22.36;73.88;99952.52;254302;1104;115548;-75
2021/06/23 06:54:35;;;;;;;29.63;25.70;;;;;;;22.41;73.70;99952.41;254190;1104;115936;-77
2021/06/23 06:59:40;;;;;;;35.88;26.30;;;;;;;22.39;73.48;99965.48;254505;1104;117822;-78
2021/06/23 07:04:44;;;;;;;32.80;23.77;;;;;;;22.30;73.51;99975.50;254156;1104;115835;-77
2021/06/23 07:09:48;;;;;;;28.40;23.35;;;;;;;22.25;73.58;99972.89;254963;1104;116101;-74
2021/06/23 07:14:51;;;;;;;33.88;24.68;;;;;;;22.23;73.57;99979.73;254900;1104;115580;-74
2021/06/23 07:19:54;;;;;;;34.40;23.90;;;;;;;22.20;73.65;99988.49;255553;1104;116187;-74
2021/06/23 07:24:58;;;;;;;29.78;23.20;;;;;;;22.21;73.53;99993.63;256522;1104;115520;-74
2021/06/23 07:30:01;;;;;;;33.85;25.68;;;;;;;22.20;73.19;100002.07;257442;1103;115195;-74
2021/06/23 07:46:02;;;;;;;32.88;24.90;;;;;;;22.15;73.45;100025.50;254628;1104;116746;-71
2021/06/23 08:12:42;;;;;;;26.73;21.53;;;;;;;22.30;73.26;100024.38;255090;1104;116386;-74
2021/06/23 08:17:47;;;;;;;24.90;20.40;;;;;;;22.40;73.28;100024.14;255629;1104;116099;-75
2021/06/23 08:22:50;;;;;;;25.25;20.95;;;;;;;22.50;73.29;100029.34;255031;1104;116742;-74
2021/06/23 08:27:53;;;;;;;24.98;20.35;;;;;;;22.62;73.18;100036.97;254391;1098;117593;-74
2021/06/23 08:32:57;;;;;;;28.13;19.38;;;;;;;22.78;73.03;100040.95;254309;1104;116544;-72
2021/06/23 08:38:01;;;;;;;20.43;18.15;;;;;;;22.86;72.67;100053.02;254231;1104;116626;-72
2021/06/23 08:43:04;;;;;;;24.43;18.38;;;;;;;22.96;72.64;100050.02;254745;1104;117608;-73
2021/06/23 08:48:09;;;;;;;25.80;18.63;;;;;;;23.12;72.35;100050.47;254059;1104;116937;-73
2021/06/23 08:53:12;;;;;;;26.80;20.27;;;;;;;23.18;72.05;100055.47;255270;1104;116465;-73
2021/06/23 08:58:15;;;;;;;26.18;20.38;;;;;;;23.01;71.92;100066.22;255324;1104;116685;-74
2021/06/23 09:03:19;;;;;;;27.38;19.15;;;;;;;22.91;71.84;100068.40;254123;1104;116950;-73
2021/06/23 09:08:37;;;;;;;23.50;19.05;;;;;;;22.90;71.69;100081.19;256651;1104;117168;-73
2021/06/23 09:13:42;;;;;;;26.73;19.38;;;;;;;22.83;71.68;100083.52;254815;1104;116669;-71
2021/06/23 09:18:45;;;;;;;25.60;17.73;;;;;;;22.93;71.45;100091.42;255031;1104;116544;-73
2021/06/23 09:23:54;;;;;;;17.98;16.00;;;;;;;23.11;71.80;100093.17;254448;1098;116842;-76
2021/06/23 09:29:12;;;;;;;21.30;19.10;;;;;;;23.36;71.75;100089.01;255748;1100;116658;-77
2021/06/23 09:34:39;;;;;;;21.65;16.38;;;;;;;23.58;71.38;100090.91;255953;1104;116243;-77
2021/06/23 09:39:42;;;;;;;28.70;18.98;;;;;;;23.47;70.89;100087.64;255420;1104;117263;-76
2021/06/23 09:45:06;;;;;;;25.40;16.57;;;;;;;23.41;70.34;100085.36;254637;1099;116196;-76
2021/06/23 09:50:16;;;;;;;24.80;18.95;;;;;;;23.32;70.30;100081.77;254763;1104;116200;-73
2021/06/23 09:55:20;;;;;;;21.23;18.40;;;;;;;23.38;70.48;100085.98;254326;1104;116323;-76
2021/06/23 10:00:28;;;;;;;20.03;16.53;;;;;;;23.48;70.22;100085.73;254407;1104;115903;-72
2021/06/23 10:05:31;;;;;;;26.07;17.83;;;;;;;23.63;70.21;100096.23;254617;1104;116288;-74
2021/06/23 10:10:44;;;;;;;19.28;16.23;;;;;;;23.92;70.06;100084.02;254575;1104;116936;-75
2021/06/23 10:15:49;;;;;;;19.20;16.33;;;;;;;24.43;69.74;100088.86;255149;1104;115539;-76
2021/06/23 10:20:54;;;;;;;24.78;18.18;;;;;;;24.80;68.81;100088.22;254233;1104;116519;-76
2021/06/23 10:25:57;;;;;;;17.75;15.23;;;;;;;25.04;68.63;100082.33;254842;1099;115811;-77
2021/06/23 10:31:00;;;;;;;20.40;17.10;;;;;;;25.32;67.70;100088.22;254331;1104;115678;-78
2021/06/23 10:36:03;;;;;;;18.33;16.25;;;;;;;25.41;66.83;100085.45;254285;1104;115718;-77
2021/06/23 10:41:07;;;;;;;19.05;17.05;;;;;;;25.44;66.71;100079.34;254586;1104;116285;-76
2021/06/23 10:46:11;;;;;;;27.15;17.93;;;;;;;25.53;66.25;100082.86;254268;1104;115628;-73
2021/06/23 10:51:27;;;;;;;22.38;15.43;;;;;;;25.43;65.47;100083.20;255153;1104;115951;-74
2021/06/23 10:56:43;;;;;;;20.93;18.05;;;;;;;25.45;65.50;100091.86;254201;1104;116419;-75
2021/06/23 11:02:12;;;;;;;19.13;15.80;;;;;;;25.46;64.70;100093.47;255369;1104;116152;-77
2021/06/23 11:07:49;;;;;;;31.03;17.40;;;;;;;25.47;64.47;100095.88;254348;1104;115805;-78
2021/06/23 11:13:08;;;;;;;17.65;14.70;;;;;;;25.46;64.53;100104.38;254053;1104;115501;-73
2021/06/23 11:18:31;;;;;;;22.80;17.50;;;;;;;25.32;64.26;100104.59;254158;1104;115985;-75
2021/06/23 11:24:01;;;;;;;26.78;17.45;;;;;;;25.05;64.29;100108.48;257310;1104;115571;-77
2021/06/23 11:29:10;;;;;;;23.25;17.03;;;;;;;24.87;64.50;100109.56;256553;1104;115856;-77
2021/06/23 11:34:37;;;;;;;17.50;15.73;;;;;;;24.76;64.98;100111.02;255520;1103;116147;-78
2021/06/23 11:39:40;;;;;;;20.45;18.33;;;;;;;24.68;65.48;100107.16;254595;1104;116191;-74
2021/06/23 11:44:43;;;;;;;20.68;18.65;;;;;;;24.58;65.33;100120.28;255433;1104;116714;-73
2021/06/23 11:49:46;;;;;;;24.83;18.75;;;;;;;24.51;65.46;100121.55;254375;1104;119451;-76
2021/06/23 11:54:49;;;;;;;26.80;19.23;;;;;;;24.44;65.28;100126.69;254179;1104;117073;-73
2021/06/23 11:59:52;;;;;;;25.00;19.30;;;;;;;24.44;65.09;100121.23;255434;1104;116943;-76
2021/06/23 12:04:54;;;;;;;23.75;18.40;;;;;;;24.54;65.22;100111.13;254123;1104;116505;-74
2021/06/23 12:09:58;;;;;;;23.63;15.95;;;;;;;24.71;65.38;100098.34;254263;1104;115620;-77
2021/06/23 12:15:01;;;;;;;23.33;19.23;;;;;;;24.86;65.39;100097.05;254227;1099;116943;-73
2021/06/23 12:20:09;;;;;;;18.70;15.25;;;;;;;25.08;64.98;100087.91;254782;1104;115828;-76
2021/06/23 12:25:17;;;;;;;24.43;16.85;;;;;;;25.28;64.20;100091.91;254260;1100;116256;-75
2021/06/23 12:30:21;;;;;;;20.15;16.53;;;;;;;25.47;64.64;100090.41;254271;1104;116253;-78
2021/06/23 12:35:26;;;;;;;18.10;15.63;;;;;;;25.72;63.77;100080.56;254439;1104;116392;-75
2021/06/23 12:40:30;;;;;;;21.18;16.55;;;;;;;25.94;63.85;100076.80;254334;1104;116392;-78
2021/06/23 12:45:34;;;;;;;32.10;18.38;;;;;;;26.14;63.27;100083.43;254518;1104;116373;-76
2021/06/23 12:50:41;;;;;;;16.68;15.08;;;;;;;26.22;62.26;100079.86;254391;1103;116364;-75
2021/06/23 12:55:45;;;;;;;17.58;15.55;;;;;;;26.46;62.37;100066.38;254973;1103;116181;-76
2021/06/23 13:00:48;;;;;;;16.95;15.15;;;;;;;26.65;61.97;100068.64;254285;1104;117894;-74
2021/06/23 13:05:51;;;;;;;25.18;15.48;;;;;;;26.80;61.89;100062.58;254306;1104;115868;-76
2021/06/23 13:10:55;;;;;;;20.18;16.28;;;;;;;26.95;61.71;100069.38;254149;1104;117391;-76
2021/06/23 13:15:58;;;;;;;17.35;15.60;;;;;;;26.96;60.63;100072.91;254304;1104;116724;-76
2021/06/23 13:21:02;;;;;;;19.40;17.13;;;;;;;26.81;60.61;100082.52;254334;1104;117088;-75
2021/06/23 13:26:06;;;;;;;19.63;15.15;;;;;;;26.58;60.81;100089.47;254146;1104;116600;-74
2021/06/23 13:31:10;;;;;;;20.08;16.35;;;;;;;26.37;61.17;100090.23;256076;1104;116548;-76
2021/06/23 13:36:13;;;;;;;20.33;15.57;;;;;;;26.23;61.02;100092.39;255975;1104;116945;-74
2021/06/23 13:41:16;;;;;;;24.18;15.35;;;;;;;26.12;61.07;100083.76;254159;1104;117979;-73
2021/06/23 13:46:19;;;;;;;21.43;16.33;;;;;;;26.17;61.01;100091.77;254383;1104;118116;-75
2021/06/23 13:51:23;;;;;;;18.18;15.38;;;;;;;26.12;61.02;100097.42;254184;1104;116142;-75
2021/06/23 13:56:28;;;;;;;19.67;15.70;;;;;;;25.97;61.36;100092.53;254420;1104;176181;-75
2021/06/23 14:01:32;;;;;;;20.20;14.83;;;;;;;25.91;61.75;100103.96;255079;1104;116102;-75
2021/06/23 14:06:35;;;;;;;17.95;16.15;;;;;;;25.82;61.64;100102.06;254230;1099;116670;-75
2021/06/23 14:11:38;;;;;;;17.00;15.35;;;;;;;25.76;61.41;100103.36;254696;1104;116799;-74
2021/06/23 14:16:41;;;;;;;16.37;14.60;;;;;;;25.71;61.79;100103.53;254205;1104;117885;-74
2021/06/23 14:21:45;;;;;;;17.65;14.70;;;;;;;25.70;61.98;100104.66;255490;1104;115719;-73
2021/06/23 14:26:51;;;;;;;17.43;15.55;;;;;;;25.66;62.02;100105.67;254637;1104;116721;-76
2021/06/23 14:31:55;;;;;;;16.40;14.78;;;;;;;25.60;61.76;100104.20;254214;1104;115646;-75
2021/06/23 14:36:58;;;;;;;17.15;14.78;;;;;;;25.46;62.18;100109.84;254254;1104;116850;-73
2021/06/23 14:42:00;;;;;;;19.15;13.38;;;;;;;25.32;62.16;100109.25;254193;1098;115985;-76
2021/06/23 14:47:05;;;;;;;14.83;13.30;;;;;;;25.15;62.60;100118.24;254533;1104;117243;-75
2021/06/23 14:52:08;;;;;;;27.53;18.63;;;;;;;25.06;62.60;100120.99;254643;1104;115954;-74
2021/06/23 14:57:11;;;;;;;25.50;17.03;;;;;;;24.92;62.76;100117.58;254579;1104;115815;-74
2021/06/23 15:02:15;;;;;;;20.23;16.65;;;;;;;24.77;63.24;100126.22;254112;1099;116539;-75
2021/06/23 15:07:32;;;;;;;22.65;14.75;;;;;;;24.57;63.30;100132.30;255231;1098;116229;-75
2021/06/23 15:12:35;;;;;;;20.80;14.38;;;;;;;24.43;63.27;100127.00;254153;1104;115861;-77
2021/06/23 15:17:40;;;;;;;26.03;15.63;;;;;;;24.40;63.50;100142.06;254209;1104;116632;-76
2021/06/23 15:22:43;;;;;;;16.20;14.25;;;;;;;24.35;63.27;100147.66;254575;1104;115699;-75
2021/06/23 15:27:46;;;;;;;20.23;13.35;;;;;;;24.27;63.78;100144.89;255327;1104;115918;-76
2021/06/23 15:32:48;;;;;;;17.58;14.38;;;;;;;24.21;63.62;100144.20;255800;1104;115869;-75
2021/06/23 15:37:52;;;;;;;14.77;12.23;;;;;;;24.30;63.77;100142.34;254192;1103;115983;-75
2021/06/23 15:42:56;;;;;;;16.10;14.07;;;;;;;24.33;63.69;100149.89;257230;1104;115872;-75
2021/06/23 15:48:00;;;;;;;16.27;13.00;;;;;;;24.37;63.97;100141.89;256229;1104;115684;-75
2021/06/23 15:53:04;;;;;;;19.48;12.73;;;;;;;24.43;63.88;100151.52;257251;1104;116457;-75
2021/06/23 15:58:18;;;;;;;15.77;12.47;;;;;;;24.49;63.44;100152.96;256246;1104;116282;-74
2021/06/23 16:03:22;;;;;;;15.05;12.85;;;;;;;24.60;63.57;100145.30;255845;1104;115762;-76
2021/06/23 16:08:27;;;;;;;15.20;13.67;;;;;;;24.74;63.71;100145.97;256531;1104;115922;-76
2021/06/23 16:13:30;;;;;;;16.43;13.60;;;;;;;24.80;63.79;100139.22;254235;1104;116009;-74
2021/06/23 16:18:34;;;;;;;15.95;14.40;;;;;;;24.73;63.21;100136.99;254297;1104;116984;-74
2021/06/23 16:23:43;;;;;;;18.98;13.33;;;;;;;24.59;63.25;100141.77;254162;1099;116105;-73
2021/06/23 16:28:47;;;;;;;13.73;12.33;;;;;;;24.48;63.26;100146.70;254366;1104;116066;-75
2021/06/23 16:33:50;;;;;;;13.93;12.60;;;;;;;24.33;63.71;100149.89;254217;1104;116586;-72
2021/06/23 16:38:53;;;;;;;15.87;12.60;;;;;;;24.23;63.61;100152.86;254366;1104;117685;-71
2021/06/23 16:43:56;;;;;;;16.43;12.95;;;;;;;24.08;63.85;100159.55;254148;1104;116342;-77
2021/06/23 16:48:59;;;;;;;16.08;14.30;;;;;;;23.93;64.11;100162.67;254106;1104;117365;-72
2021/06/23 16:54:02;;;;;;;14.93;12.73;;;;;;;23.87;64.11;100154.94;254513;1104;116368;-77
2021/06/23 16:59:06;;;;;;;18.00;13.68;;;;;;;23.83;64.49;100157.52;254100;1104;116431;-74
2021/06/23 17:04:08;;;;;;;12.83;11.43;;;;;;;23.80;64.34;100155.41;254288;1104;116008;-73
2021/06/23 17:09:11;;;;;;;16.35;13.13;;;;;;;23.71;64.21;100144.47;254047;1104;117390;-72
2021/06/23 17:14:16;;;;;;;14.20;11.23;;;;;;;23.67;64.47;100153.56;254393;1097;118532;-72
2021/06/23 17:19:19;;;;;;;16.45;14.30;;;;;;;23.57;64.66;100173.67;254180;1104;117517;-72
2021/06/23 17:24:25;;;;;;;23.53;12.60;;;;;;;23.49;64.90;100175.20;254072;1104;116701;-73
2021/06/23 17:29:28;;;;;;;14.95;11.58;;;;;;;23.41;64.96;100173.22;254175;1100;117759;-73
2021/06/23 17:34:32;;;;;;;15.45;12.98;;;;;;;23.33;65.15;100175.88;254418;1104;117589;-75
2021/06/23 17:39:35;;;;;;;15.20;12.70;;;;;;;23.23;65.32;100170.70;254714;1098;117052;-76
2021/06/23 17:44:39;;;;;;;13.10;11.70;;;;;;;23.20;65.56;100169.39;254778;1104;116576;-75
2021/06/23 17:49:44;;;;;;;12.88;11.40;;;;;;;23.24;65.73;100161.39;255902;1104;115751;-75
2021/06/23 17:54:48;;;;;;;17.25;11.95;;;;;;;23.22;65.54;100166.36;256506;1104;116604;-75
2021/06/23 17:59:52;;;;;;;13.95;12.00;;;;;;;23.15;65.80;100162.16;256024;1104;116659;-76
2021/06/23 18:04:55;;;;;;;12.95;11.33;;;;;;;23.01;65.74;100161.38;257254;1104;117745;-76
2021/06/23 18:09:58;;;;;;;13.38;10.70;;;;;;;22.94;65.97;100169.15;254451;1104;115955;-76
2021/06/23 18:15:01;;;;;;;13.40;12.00;;;;;;;22.86;65.98;100169.89;255509;1100;115419;-74
2021/06/23 18:20:07;;;;;;;14.28;10.70;;;;;;;22.80;66.37;100162.95;254350;1104;116142;-74
2021/06/23 18:25:11;;;;;;;12.23;10.75;;;;;;;22.64;66.69;100158.91;254911;1104;116563;-73
2021/06/23 18:30:16;;;;;;;11.98;10.88;;;;;;;22.54;67.04;100157.23;254333;1104;116027;-75
2021/06/23 18:35:20;;;;;;;13.83;10.37;;;;;;;22.42;66.86;100163.17;255395;1104;116644;-75
2021/06/23 18:40:26;;;;;;;12.18;10.58;;;;;;;22.34;67.31;100153.00;254273;1104;116071;-73
2021/06/23 18:45:31;;;;;;;12.53;11.23;;;;;;;22.24;67.50;100155.95;254442;1104;217178;-75
2021/06/23 18:50:34;;;;;;;13.30;10.40;;;;;;;22.11;67.61;100148.59;254395;1104;118006;-75
2021/06/23 18:55:37;;;;;;;11.48;9.88;;;;;;;22.04;67.85;100156.31;254256;1104;117299;-74
2021/06/23 19:00:43;;;;;;;;;;;;;;;21.87;68.12;100159.59;254888;1104;116076;-75
2021/06/23 19:05:47;;;;;;;11.78;10.60;;;;;;;21.70;68.27;100157.47;255333;1104;104318;-75
2021/06/23 19:10:51;;;;;;;12.40;10.47;;;;;;;21.58;68.54;100159.84;254561;1100;117636;-73
2021/06/23 19:15:54;;;;;;;12.13;11.00;;;;;;;21.47;68.43;100170.04;254397;1098;117668;-75
2021/06/23 19:20:58;;;;;;;19.20;11.93;;;;;;;21.37;68.81;100169.42;254055;1104;115801;-74
2021/06/23 19:26:03;;;;;;;10.93;9.83;;;;;;;21.24;68.95;100170.16;254316;1104;116195;-75
2021/06/23 19:31:09;;;;;;;16.95;10.35;;;;;;;21.12;69.19;100171.36;254314;1104;115921;-75
2021/06/23 19:36:12;;;;;;;12.13;10.40;;;;;;;21.00;69.32;100164.80;254658;1104;116006;-75
2021/06/23 19:41:15;;;;;;;15.70;10.73;;;;;;;20.90;69.71;100159.51;254498;1098;115903;-75
2021/06/23 19:46:19;;;;;;;13.63;11.03;;;;;;;20.80;69.58;100176.70;254468;1104;115619;-75
2021/06/23 19:51:22;;;;;;;13.97;10.90;;;;;;;20.64;69.61;100175.30;254738;1099;116320;-74
2021/06/23 19:56:25;;;;;;;11.33;9.70;;;;;;;20.49;70.11;100171.67;254405;1104;115976;-75
2021/06/23 20:01:28;;;;;;;10.85;9.78;;;;;;;20.44;70.36;100171.77;255112;1104;115767;-75
2021/06/23 20:06:31;;;;;;;10.63;9.38;;;;;;;20.23;69.89;100170.34;256802;1104;115214;-75
2021/06/23 20:11:36;;;;;;;12.57;9.40;;;;;;;20.07;70.33;100177.83;254264;1104;116143;-73
2021/06/23 20:16:39;;;;;;;12.17;10.87;;;;;;;19.83;70.81;100191.33;254591;1104;115521;-75
2021/06/23 20:21:41;;;;;;;14.33;12.00;;;;;;;19.85;71.00;100174.81;254317;1104;115581;-75
2021/06/23 20:26:44;;;;;;;12.25;10.88;;;;;;;19.72;71.07;100178.17;255646;1104;116263;-75
2021/06/23 20:31:48;;;;;;;12.40;11.18;;;;;;;19.71;71.37;100158.42;255660;1099;115863;-74
2021/06/23 20:36:52;;;;;;;11.55;10.40;;;;;;;19.70;71.84;100153.30;254401;1104;115879;-75
2021/06/23 20:41:55;;;;;;;11.40;10.33;;;;;;;19.61;71.41;100157.70;254643;1103;115666;-73
2021/06/23 20:46:58;;;;;;;11.17;10.10;;;;;;;19.49;71.29;100158.06;254488;1103;195419;-75
2021/06/23 20:52:02;;;;;;;13.05;11.05;;;;;;;19.40;71.81;100157.86;254240;1104;116508;-75
2021/06/23 20:57:05;;;;;;;11.33;10.25;;;;;;;19.29;71.71;100160.91;254464;1104;115922;-75
2021/06/23 21:02:09;;;;;;;10.17;9.27;;;;;;;19.17;71.62;100161.28;254277;1104;115324;-72
2021/06/23 21:07:13;;;;;;;13.00;11.75;;;;;;;19.00;72.20;100163.54;254705;1104;115187;-75
2021/06/23 21:12:18;;;;;;;13.63;11.38;;;;;;;19.01;72.61;100160.56;254498;1104;115916;-75
2021/06/23 21:17:21;;;;;;;13.40;12.00;;;;;;;18.98;72.51;100165.70;254679;1104;116176;-75
2021/06/23 21:22:29;;;;;;;13.05;11.75;;;;;;;18.92;72.32;100162.26;254237;1104;115736;-73
2021/06/23 21:27:34;;;;;;;11.95;10.33;;;;;;;18.83;72.79;100164.73;256574;1104;116039;-75
2021/06/23 21:32:38;;;;;;;;;;;;;;;18.81;72.67;100174.20;254227;1104;116228;-74
2021/06/23 21:37:42;;;;;;;13.03;11.73;;;;;;;18.77;72.76;100159.63;257173;1104;103393;-74
2021/06/23 21:43:16;;;;;;;11.10;10.00;;;;;;;18.74;72.95;100170.98;255571;1104;116053;-75
2021/06/23 21:48:25;;;;;;;15.43;10.80;;;;;;;18.64;72.74;100173.75;254251;1104;116515;-74
2021/06/23 21:53:30;;;;;;;10.53;9.53;;;;;;;18.64;73.22;100189.95;254336;1104;116095;-75
2021/06/23 21:58:35;;;;;;;11.73;10.48;;;;;;;18.63;73.43;100178.34;255271;1103;115464;-76
2021/06/23 22:03:38;;;;;;;12.00;10.13;;;;;;;18.63;73.28;100172.13;254782;1103;116080;-76
2021/06/23 22:08:47;;;;;;;9.38;8.33;;;;;;;18.47;72.69;100177.55;256652;1104;115769;-76
2021/06/23 22:13:53;;;;;;;12.40;11.20;;;;;;;18.34;73.35;100166.55;256371;1104;116088;-75
2021/06/23 22:18:58;;;;;;;12.38;11.20;;;;;;;18.42;73.56;100171.36;256526;1104;116072;-75
2021/06/23 22:24:02;;;;;;;21.23;8.95;;;;;;;18.29;73.10;100172.77;254686;1104;116022;-74
2021/06/23 22:29:06;;;;;;;14.80;10.23;;;;;;;18.14;73.70;100160.13;256106;1100;115432;-76
2021/06/23 22:34:12;;;;;;;11.63;10.33;;;;;;;18.20;73.82;100157.41;254659;1104;117732;-75
2021/06/23 22:39:17;;;;;;;11.53;10.30;;;;;;;18.25;73.92;100155.51;255096;1104;115509;-75
2021/06/23 22:44:21;;;;;;;10.38;9.28;;;;;;;18.11;73.70;100154.46;254488;1098;115616;-74
2021/06/23 22:49:31;;;;;;;15.18;11.18;;;;;;;17.93;73.75;100155.05;254490;1099;115728;-74
2021/06/23 22:54:41;;;;;;;20.43;12.73;;;;;;;17.89;74.29;100145.89;254546;1104;117741;-75
2021/06/23 22:59:46;;;;;;;15.18;11.65;;;;;;;17.88;74.79;100145.08;255174;1104;116962;-74
2021/06/23 23:04:53;;;;;;;13.17;10.50;;;;;;;17.92;74.81;100150.73;254676;1104;117040;-74
2021/06/23 23:09:55;;;;;;;13.57;12.10;;;;;;;18.00;75.22;100142.09;254322;1103;117614;-74
2021/06/23 23:14:58;;;;;;;14.10;12.80;;;;;;;18.05;75.42;100136.66;254632;1104;117256;-73